sensor_id;sensor_type;location;lat;lon;timestamp;P1;durP1;ratioP1;P2;durP2;ratioP2
62030;SDS011;62035;52.094;5.112;2023-06-26T00:02:06;5.72;;;4.53;;
62030;SDS011;62035;52.094;5.112;2023-06-26T00:04:33;7.60;;;4.53;;
62030;SDS011;62035;52.094;5.112;2023-06-26T00:07:01;7.88;;;4.60;;
62030;SDS011;62035;52.094;5.112;2023-06-26T00:09:30;13.07;;;5.25;;
62030;SDS011;62035;52.094;5.112;2023-06-26T00:11:58;14.02;;;5.50;;
62030;SDS011;62035;52.094;5.112;2023-06-26T00:14:26;5.97;;;4.60;;
62030;SDS011;62035;52.094;5.112;2023-06-26T00:16:54;8.90;;;5.20;;
62030;SDS011;62035;52.094;5.112;2023-06-26T00:19:21;9.20;;;4.80;;
62030;SDS011;62035;52.094;5.112;2023-06-26T00:21:49;6.85;;;4.70;;
62030;SDS011;62035;52.094;5.112;2023-06-26T00:24:17;8.20;;;5.22;;
62030;SDS011;62035;52.094;5.112;2023-06-26T00:26:46;9.60;;;5.10;;
62030;SDS011;62035;52.094;5.112;2023-06-26T00:29:15;10.07;;;4.80;;
62030;SDS011;62035;52.094;5.112;2023-06-26T00:31:43;7.70;;;5.10;;
62030;SDS011;62035;52.094;5.112;2023-06-26T00:34:11;8.88;;;5.60;;
62030;SDS011;62035;52.094;5.112;2023-06-26T00:36:38;7.20;;;5.10;;
62030;SDS011;62035;52.094;5.112;2023-06-26T00:39:09;6.45;;;4.90;;
62030;SDS011;62035;52.094;5.112;2023-06-26T00:41:36;8.07;;;4.70;;
62030;SDS011;62035;52.094;5.112;2023-06-26T00:44:06;10.07;;;5.20;;
62030;SDS011;62035;52.094;5.112;2023-06-26T00:46:34;6.35;;;4.55;;
62030;SDS011;62035;52.094;5.112;2023-06-26T00:49:03;7.80;;;5.40;;
62030;SDS011;62035;52.094;5.112;2023-06-26T00:51:31;6.65;;;5.00;;
62030;SDS011;62035;52.094;5.112;2023-06-26T00:53:59;10.50;;;5.75;;
62030;SDS011;62035;52.094;5.112;2023-06-26T00:56:27;7.03;;;5.13;;
62030;SDS011;62035;52.094;5.112;2023-06-26T00:58:55;9.38;;;5.38;;
62030;SDS011;62035;52.094;5.112;2023-06-26T01:01:24;8.88;;;5.45;;
62030;SDS011;62035;52.094;5.112;2023-06-26T01:03:52;9.25;;;5.57;;
62030;SDS011;62035;52.094;5.112;2023-06-26T01:06:23;11.52;;;5.45;;
62030;SDS011;62035;52.094;5.112;2023-06-26T01:08:55;6.78;;;5.38;;
62030;SDS011;62035;52.094;5.112;2023-06-26T01:11:25;8.48;;;5.93;;
62030;SDS011;62035;52.094;5.112;2023-06-26T01:13:52;7.28;;;4.97;;
62030;SDS011;62035;52.094;5.112;2023-06-26T01:16:24;7.15;;;5.57;;
62030;SDS011;62035;52.094;5.112;2023-06-26T01:18:54;7.03;;;5.00;;
62030;SDS011;62035;52.094;5.112;2023-06-26T01:21:22;8.55;;;4.65;;
62030;SDS011;62035;52.094;5.112;2023-06-26T01:23:58;6.93;;;4.70;;
62030;SDS011;62035;52.094;5.112;2023-06-26T01:26:38;8.70;;;4.60;;
62030;SDS011;62035;52.094;5.112;2023-06-26T01:29:10;7.63;;;4.30;;
62030;SDS011;62035;52.094;5.112;2023-06-26T01:31:42;9.77;;;4.63;;
62030;SDS011;62035;52.094;5.112;2023-06-26T01:34:12;9.75;;;3.67;;
62030;SDS011;62035;52.094;5.112;2023-06-26T01:36:40;15.00;;;4.35;;
62030;SDS011;62035;52.094;5.112;2023-06-26T01:39:08;8.80;;;4.70;;
62030;SDS011;62035;52.094;5.112;2023-06-26T01:41:38;12.32;;;3.90;;
62030;SDS011;62035;52.094;5.112;2023-06-26T01:44:10;10.18;;;4.00;;
62030;SDS011;62035;52.094;5.112;2023-06-26T01:46:53;9.68;;;4.20;;
62030;SDS011;62035;52.094;5.112;2023-06-26T01:49:30;11.70;;;4.45;;
62030;SDS011;62035;52.094;5.112;2023-06-26T01:52:12;11.38;;;4.10;;
62030;SDS011;62035;52.094;5.112;2023-06-26T01:54:52;10.57;;;4.18;;
62030;SDS011;62035;52.094;5.112;2023-06-26T01:57:27;8.80;;;4.15;;
62030;SDS011;62035;52.094;5.112;2023-06-26T01:59:58;10.38;;;3.95;;
62030;SDS011;62035;52.094;5.112;2023-06-26T02:02:27;7.47;;;4.18;;
62030;SDS011;62035;52.094;5.112;2023-06-26T02:04:56;7.78;;;3.45;;
62030;SDS011;62035;52.094;5.112;2023-06-26T02:07:24;9.82;;;3.33;;
62030;SDS011;62035;52.094;5.112;2023-06-26T02:09:51;10.20;;;4.40;;
62030;SDS011;62035;52.094;5.112;2023-06-26T02:12:20;12.10;;;3.60;;
62030;SDS011;62035;52.094;5.112;2023-06-26T02:14:49;15.27;;;4.32;;
62030;SDS011;62035;52.094;5.112;2023-06-26T02:17:17;11.27;;;3.50;;
62030;SDS011;62035;52.094;5.112;2023-06-26T02:19:44;10.32;;;3.72;;
62030;SDS011;62035;52.094;5.112;2023-06-26T02:22:13;11.60;;;4.15;;
62030;SDS011;62035;52.094;5.112;2023-06-26T02:24:41;8.63;;;3.63;;
62030;SDS011;62035;52.094;5.112;2023-06-26T02:27:10;16.08;;;4.53;;
62030;SDS011;62035;52.094;5.112;2023-06-26T02:29:38;13.85;;;3.80;;
62030;SDS011;62035;52.094;5.112;2023-06-26T02:32:08;13.10;;;4.05;;
62030;SDS011;62035;52.094;5.112;2023-06-26T02:34:36;11.65;;;4.13;;
62030;SDS011;62035;52.094;5.112;2023-06-26T02:37:04;11.80;;;4.00;;
62030;SDS011;62035;52.094;5.112;2023-06-26T02:39:33;16.58;;;4.05;;
62030;SDS011;62035;52.094;5.112;2023-06-26T02:42:01;11.45;;;4.22;;
62030;SDS011;62035;52.094;5.112;2023-06-26T02:44:28;10.63;;;4.32;;
62030;SDS011;62035;52.094;5.112;2023-06-26T02:46:56;13.95;;;4.47;;
62030;SDS011;62035;52.094;5.112;2023-06-26T02:49:25;10.63;;;4.32;;
62030;SDS011;62035;52.094;5.112;2023-06-26T02:51:53;15.98;;;4.82;;
62030;SDS011;62035;52.094;5.112;2023-06-26T02:54:21;17.08;;;5.15;;
62030;SDS011;62035;52.094;5.112;2023-06-26T02:56:48;12.25;;;3.83;;
62030;SDS011;62035;52.094;5.112;2023-06-26T02:59:16;15.05;;;4.35;;
62030;SDS011;62035;52.094;5.112;2023-06-26T03:01:44;13.43;;;4.22;;
62030;SDS011;62035;52.094;5.112;2023-06-26T03:04:11;12.85;;;4.05;;
62030;SDS011;62035;52.094;5.112;2023-06-26T03:06:42;17.88;;;4.45;;
62030;SDS011;62035;52.094;5.112;2023-06-26T03:09:10;12.27;;;4.55;;
62030;SDS011;62035;52.094;5.112;2023-06-26T03:11:37;10.40;;;4.07;;
62030;SDS011;62035;52.094;5.112;2023-06-26T03:14:05;14.52;;;4.10;;
62030;SDS011;62035;52.094;5.112;2023-06-26T03:16:33;11.40;;;3.85;;
62030;SDS011;62035;52.094;5.112;2023-06-26T03:19:01;21.40;;;4.55;;
62030;SDS011;62035;52.094;5.112;2023-06-26T03:21:30;20.98;;;4.40;;
62030;SDS011;62035;52.094;5.112;2023-06-26T03:23:59;13.07;;;4.45;;
62030;SDS011;62035;52.094;5.112;2023-06-26T03:26:26;10.70;;;4.18;;
62030;SDS011;62035;52.094;5.112;2023-06-26T03:28:54;10.77;;;4.60;;
62030;SDS011;62035;52.094;5.112;2023-06-26T03:31:22;16.00;;;4.78;;
62030;SDS011;62035;52.094;5.112;2023-06-26T03:33:49;17.48;;;5.30;;
62030;SDS011;62035;52.094;5.112;2023-06-26T03:36:17;15.75;;;4.65;;
62030;SDS011;62035;52.094;5.112;2023-06-26T03:38:45;12.57;;;4.30;;
62030;SDS011;62035;52.094;5.112;2023-06-26T03:41:14;12.73;;;3.95;;
62030;SDS011;62035;52.094;5.112;2023-06-26T03:43:42;17.88;;;5.38;;
62030;SDS011;62035;52.094;5.112;2023-06-26T03:46:09;11.57;;;4.45;;
62030;SDS011;62035;52.094;5.112;2023-06-26T03:48:37;12.65;;;4.20;;
62030;SDS011;62035;52.094;5.112;2023-06-26T03:51:05;19.15;;;4.93;;
62030;SDS011;62035;52.094;5.112;2023-06-26T03:53:33;22.30;;;4.65;;
62030;SDS011;62035;52.094;5.112;2023-06-26T03:56:01;16.90;;;4.70;;
62030;SDS011;62035;52.094;5.112;2023-06-26T03:58:30;14.27;;;4.70;;
62030;SDS011;62035;52.094;5.112;2023-06-26T04:00:58;17.35;;;5.15;;
62030;SDS011;62035;52.094;5.112;2023-06-26T04:03:26;14.60;;;4.25;;
62030;SDS011;62035;52.094;5.112;2023-06-26T04:05:54;17.98;;;4.32;;
62030;SDS011;62035;52.094;5.112;2023-06-26T04:08:23;14.00;;;4.30;;
62030;SDS011;62035;52.094;5.112;2023-06-26T04:10:52;13.23;;;4.53;;
62030;SDS011;62035;52.094;5.112;2023-06-26T04:13:23;11.75;;;4.32;;
62030;SDS011;62035;52.094;5.112;2023-06-26T04:15:52;16.15;;;4.10;;
62030;SDS011;62035;52.094;5.112;2023-06-26T04:18:19;14.50;;;4.38;;
62030;SDS011;62035;52.094;5.112;2023-06-26T04:21:06;11.32;;;4.20;;
62030;SDS011;62035;52.094;5.112;2023-06-26T04:23:37;13.18;;;4.20;;
62030;SDS011;62035;52.094;5.112;2023-06-26T04:26:06;17.38;;;5.00;;
62030;SDS011;62035;52.094;5.112;2023-06-26T04:28:35;16.92;;;4.90;;
62030;SDS011;62035;52.094;5.112;2023-06-26T04:31:05;12.98;;;4.10;;
62030;SDS011;62035;52.094;5.112;2023-06-26T04:33:32;16.05;;;4.07;;
62030;SDS011;62035;52.094;5.112;2023-06-26T04:36:01;11.73;;;4.30;;
62030;SDS011;62035;52.094;5.112;2023-06-26T04:38:29;9.10;;;3.63;;
62030;SDS011;62035;52.094;5.112;2023-06-26T04:40:57;17.58;;;4.32;;
62030;SDS011;62035;52.094;5.112;2023-06-26T04:43:25;12.35;;;3.92;;
62030;SDS011;62035;52.094;5.112;2023-06-26T04:45:53;12.95;;;4.10;;
62030;SDS011;62035;52.094;5.112;2023-06-26T04:48:22;11.85;;;3.78;;
62030;SDS011;62035;52.094;5.112;2023-06-26T04:50:50;17.35;;;4.55;;
62030;SDS011;62035;52.094;5.112;2023-06-26T04:53:19;12.23;;;3.85;;
62030;SDS011;62035;52.094;5.112;2023-06-26T04:55:48;14.45;;;4.35;;
62030;SDS011;62035;52.094;5.112;2023-06-26T04:58:16;13.55;;;4.10;;
62030;SDS011;62035;52.094;5.112;2023-06-26T05:00:44;14.32;;;4.03;;
62030;SDS011;62035;52.094;5.112;2023-06-26T05:03:13;12.00;;;3.90;;
62030;SDS011;62035;52.094;5.112;2023-06-26T05:05:44;9.50;;;3.53;;
62030;SDS011;62035;52.094;5.112;2023-06-26T05:08:15;15.35;;;3.90;;
62030;SDS011;62035;52.094;5.112;2023-06-26T05:10:44;11.10;;;3.75;;
62030;SDS011;62035;52.094;5.112;2023-06-26T05:13:12;9.73;;;3.45;;
62030;SDS011;62035;52.094;5.112;2023-06-26T05:15:43;12.00;;;3.90;;
62030;SDS011;62035;52.094;5.112;2023-06-26T05:18:12;12.98;;;3.20;;
62030;SDS011;62035;52.094;5.112;2023-06-26T05:20:40;12.15;;;3.35;;
62030;SDS011;62035;52.094;5.112;2023-06-26T05:23:09;12.48;;;3.50;;
62030;SDS011;62035;52.094;5.112;2023-06-26T05:25:39;12.27;;;3.70;;
62030;SDS011;62035;52.094;5.112;2023-06-26T05:28:08;11.18;;;3.72;;
62030;SDS011;62035;52.094;5.112;2023-06-26T05:30:38;10.45;;;3.67;;
62030;SDS011;62035;52.094;5.112;2023-06-26T05:33:06;10.20;;;3.50;;
62030;SDS011;62035;52.094;5.112;2023-06-26T05:35:38;8.80;;;2.95;;
62030;SDS011;62035;52.094;5.112;2023-06-26T05:38:07;11.43;;;3.45;;
62030;SDS011;62035;52.094;5.112;2023-06-26T05:40:39;9.00;;;3.22;;
62030;SDS011;62035;52.094;5.112;2023-06-26T05:43:07;6.05;;;2.92;;
62030;SDS011;62035;52.094;5.112;2023-06-26T05:45:36;13.68;;;3.13;;
62030;SDS011;62035;52.094;5.112;2023-06-26T05:48:04;10.68;;;3.40;;
62030;SDS011;62035;52.094;5.112;2023-06-26T05:50:32;12.07;;;3.47;;
62030;SDS011;62035;52.094;5.112;2023-06-26T05:53:01;12.45;;;2.75;;
62030;SDS011;62035;52.094;5.112;2023-06-26T05:55:33;10.13;;;2.75;;
62030;SDS011;62035;52.094;5.112;2023-06-26T05:58:02;11.40;;;2.85;;
62030;SDS011;62035;52.094;5.112;2023-06-26T06:00:31;9.27;;;2.92;;
62030;SDS011;62035;52.094;5.112;2023-06-26T06:02:59;8.73;;;2.90;;
62030;SDS011;62035;52.094;5.112;2023-06-26T06:05:27;6.70;;;2.85;;
62030;SDS011;62035;52.094;5.112;2023-06-26T06:07:54;8.38;;;3.05;;
62030;SDS011;62035;52.094;5.112;2023-06-26T06:10:22;8.25;;;3.35;;
62030;SDS011;62035;52.094;5.112;2023-06-26T06:12:51;5.40;;;2.50;;
62030;SDS011;62035;52.094;5.112;2023-06-26T06:15:20;8.00;;;2.78;;
62030;SDS011;62035;52.094;5.112;2023-06-26T06:17:48;12.45;;;2.88;;
62030;SDS011;62035;52.094;5.112;2023-06-26T06:20:16;9.77;;;3.72;;
62030;SDS011;62035;52.094;5.112;2023-06-26T06:22:45;6.03;;;2.50;;
62030;SDS011;62035;52.094;5.112;2023-06-26T06:25:14;8.82;;;2.88;;
62030;SDS011;62035;52.094;5.112;2023-06-26T06:27:42;9.23;;;2.80;;
62030;SDS011;62035;52.094;5.112;2023-06-26T06:30:12;7.88;;;2.78;;
62030;SDS011;62035;52.094;5.112;2023-06-26T06:32:40;7.47;;;2.83;;
62030;SDS011;62035;52.094;5.112;2023-06-26T06:35:08;6.30;;;2.50;;
62030;SDS011;62035;52.094;5.112;2023-06-26T06:37:36;5.88;;;2.63;;
62030;SDS011;62035;52.094;5.112;2023-06-26T06:40:04;10.88;;;3.05;;
62030;SDS011;62035;52.094;5.112;2023-06-26T06:42:34;11.48;;;3.35;;
62030;SDS011;62035;52.094;5.112;2023-06-26T06:45:02;9.55;;;3.22;;
62030;SDS011;62035;52.094;5.112;2023-06-26T06:47:32;11.13;;;3.28;;
62030;SDS011;62035;52.094;5.112;2023-06-26T06:50:01;7.18;;;2.60;;
62030;SDS011;62035;52.094;5.112;2023-06-26T06:52:34;9.02;;;2.95;;
62030;SDS011;62035;52.094;5.112;2023-06-26T06:55:04;12.45;;;2.60;;
62030;SDS011;62035;52.094;5.112;2023-06-26T06:57:35;10.23;;;2.70;;
62030;SDS011;62035;52.094;5.112;2023-06-26T07:00:04;11.82;;;2.72;;
62030;SDS011;62035;52.094;5.112;2023-06-26T07:02:37;12.15;;;2.80;;
62030;SDS011;62035;52.094;5.112;2023-06-26T07:05:05;11.05;;;3.47;;
62030;SDS011;62035;52.094;5.112;2023-06-26T07:07:34;11.05;;;2.70;;
62030;SDS011;62035;52.094;5.112;2023-06-26T07:10:04;7.20;;;2.42;;
62030;SDS011;62035;52.094;5.112;2023-06-26T07:12:34;7.00;;;2.70;;
62030;SDS011;62035;52.094;5.112;2023-06-26T07:15:03;8.63;;;2.42;;
62030;SDS011;62035;52.094;5.112;2023-06-26T07:17:32;7.40;;;2.42;;
62030;SDS011;62035;52.094;5.112;2023-06-26T07:20:02;6.18;;;2.55;;
62030;SDS011;62035;52.094;5.112;2023-06-26T07:22:32;5.28;;;3.00;;
62030;SDS011;62035;52.094;5.112;2023-06-26T07:25:00;7.72;;;1.98;;
62030;SDS011;62035;52.094;5.112;2023-06-26T07:27:28;7.32;;;2.30;;
62030;SDS011;62035;52.094;5.112;2023-06-26T07:29:56;9.50;;;2.53;;
62030;SDS011;62035;52.094;5.112;2023-06-26T07:32:24;8.18;;;2.15;;
62030;SDS011;62035;52.094;5.112;2023-06-26T07:34:51;7.47;;;2.22;;
62030;SDS011;62035;52.094;5.112;2023-06-26T07:37:20;10.40;;;2.20;;
62030;SDS011;62035;52.094;5.112;2023-06-26T07:39:48;11.00;;;2.90;;
62030;SDS011;62035;52.094;5.112;2023-06-26T07:42:16;12.02;;;2.85;;
62030;SDS011;62035;52.094;5.112;2023-06-26T07:44:44;12.45;;;2.83;;
62030;SDS011;62035;52.094;5.112;2023-06-26T07:47:12;6.85;;;2.08;;
62030;SDS011;62035;52.094;5.112;2023-06-26T07:49:40;7.60;;;2.13;;
62030;SDS011;62035;52.094;5.112;2023-06-26T07:52:08;11.38;;;2.50;;
62030;SDS011;62035;52.094;5.112;2023-06-26T07:54:38;9.02;;;2.53;;
62030;SDS011;62035;52.094;5.112;2023-06-26T07:57:06;7.80;;;2.60;;
62030;SDS011;62035;52.094;5.112;2023-06-26T07:59:34;8.70;;;2.72;;
62030;SDS011;62035;52.094;5.112;2023-06-26T08:02:02;7.40;;;2.53;;
62030;SDS011;62035;52.094;5.112;2023-06-26T08:04:30;10.88;;;2.65;;
62030;SDS011;62035;52.094;5.112;2023-06-26T08:06:59;8.00;;;1.92;;
62030;SDS011;62035;52.094;5.112;2023-06-26T08:09:29;6.35;;;2.03;;
62030;SDS011;62035;52.094;5.112;2023-06-26T08:11:59;12.50;;;2.25;;
62030;SDS011;62035;52.094;5.112;2023-06-26T08:14:27;12.07;;;2.25;;
62030;SDS011;62035;52.094;5.112;2023-06-26T08:16:55;9.50;;;2.30;;
62030;SDS011;62035;52.094;5.112;2023-06-26T08:19:23;10.63;;;2.80;;
62030;SDS011;62035;52.094;5.112;2023-06-26T08:21:50;9.85;;;2.72;;
62030;SDS011;62035;52.094;5.112;2023-06-26T08:24:18;9.38;;;1.98;;
62030;SDS011;62035;52.094;5.112;2023-06-26T08:26:46;8.95;;;2.10;;
62030;SDS011;62035;52.094;5.112;2023-06-26T08:29:16;13.93;;;1.92;;
62030;SDS011;62035;52.094;5.112;2023-06-26T08:31:43;13.30;;;2.05;;
62030;SDS011;62035;52.094;5.112;2023-06-26T08:34:11;22.42;;;3.20;;
62030;SDS011;62035;52.094;5.112;2023-06-26T08:36:39;15.75;;;2.28;;
62030;SDS011;62035;52.094;5.112;2023-06-26T08:39:07;8.07;;;1.90;;
62030;SDS011;62035;52.094;5.112;2023-06-26T08:41:35;10.07;;;2.15;;
62030;SDS011;62035;52.094;5.112;2023-06-26T08:44:03;8.48;;;2.53;;
62030;SDS011;62035;52.094;5.112;2023-06-26T08:46:33;12.75;;;2.47;;
62030;SDS011;62035;52.094;5.112;2023-06-26T08:49:01;7.32;;;2.10;;
62030;SDS011;62035;52.094;5.112;2023-06-26T08:51:39;7.00;;;1.88;;
62030;SDS011;62035;52.094;5.112;2023-06-26T08:54:16;18.77;;;4.72;;
62030;SDS011;62035;52.094;5.112;2023-06-26T08:56:54;6.55;;;1.90;;
62030;SDS011;62035;52.094;5.112;2023-06-26T08:59:26;10.18;;;2.00;;
62030;SDS011;62035;52.094;5.112;2023-06-26T09:01:56;6.43;;;2.33;;
62030;SDS011;62035;52.094;5.112;2023-06-26T09:04:25;11.63;;;2.20;;
62030;SDS011;62035;52.094;5.112;2023-06-26T09:06:52;7.13;;;2.13;;
62030;SDS011;62035;52.094;5.112;2023-06-26T09:09:20;5.82;;;1.98;;
62030;SDS011;62035;52.094;5.112;2023-06-26T09:11:48;7.60;;;2.10;;
62030;SDS011;62035;52.094;5.112;2023-06-26T09:14:15;6.50;;;2.03;;
62030;SDS011;62035;52.094;5.112;2023-06-26T09:16:45;6.68;;;2.15;;
62030;SDS011;62035;52.094;5.112;2023-06-26T09:19:15;8.05;;;1.90;;
62030;SDS011;62035;52.094;5.112;2023-06-26T09:21:43;10.13;;;3.05;;
62030;SDS011;62035;52.094;5.112;2023-06-26T09:24:10;8.23;;;2.22;;
62030;SDS011;62035;52.094;5.112;2023-06-26T09:26:39;11.82;;;2.20;;
62030;SDS011;62035;52.094;5.112;2023-06-26T09:29:08;6.47;;;1.80;;
62030;SDS011;62035;52.094;5.112;2023-06-26T09:31:37;6.20;;;1.98;;
62030;SDS011;62035;52.094;5.112;2023-06-26T09:34:05;5.18;;;1.80;;
62030;SDS011;62035;52.094;5.112;2023-06-26T09:36:35;6.45;;;2.22;;
62030;SDS011;62035;52.094;5.112;2023-06-26T09:39:03;12.57;;;1.92;;
62030;SDS011;62035;52.094;5.112;2023-06-26T09:41:36;7.70;;;2.42;;
62030;SDS011;62035;52.094;5.112;2023-06-26T09:44:05;4.72;;;1.90;;
62030;SDS011;62035;52.094;5.112;2023-06-26T09:46:33;7.45;;;2.35;;
62030;SDS011;62035;52.094;5.112;2023-06-26T09:49:02;14.38;;;4.13;;
62030;SDS011;62035;52.094;5.112;2023-06-26T09:51:33;4.18;;;1.70;;
62030;SDS011;62035;52.094;5.112;2023-06-26T09:54:03;6.32;;;1.80;;
62030;SDS011;62035;52.094;5.112;2023-06-26T09:56:33;7.25;;;1.60;;
62030;SDS011;62035;52.094;5.112;2023-06-26T09:59:01;4.38;;;1.38;;
62030;SDS011;62035;52.094;5.112;2023-06-26T10:01:32;4.47;;;1.60;;
62030;SDS011;62035;52.094;5.112;2023-06-26T10:04:00;8.23;;;1.58;;
62030;SDS011;62035;52.094;5.112;2023-06-26T10:06:31;7.93;;;1.90;;
62030;SDS011;62035;52.094;5.112;2023-06-26T10:09:03;8.98;;;2.15;;
62030;SDS011;62035;52.094;5.112;2023-06-26T10:11:32;6.07;;;1.40;;
62030;SDS011;62035;52.094;5.112;2023-06-26T10:14:07;8.05;;;1.70;;
62030;SDS011;62035;52.094;5.112;2023-06-26T10:16:39;7.88;;;1.58;;
62030;SDS011;62035;52.094;5.112;2023-06-26T10:21:41;11.88;;;1.83;;
62030;SDS011;62035;52.094;5.112;2023-06-26T10:24:09;5.07;;;1.45;;
62030;SDS011;62035;52.094;5.112;2023-06-26T10:26:41;6.47;;;1.70;;
62030;SDS011;62035;52.094;5.112;2023-06-26T10:29:12;7.55;;;1.50;;
62030;SDS011;62035;52.094;5.112;2023-06-26T10:31:45;6.07;;;1.67;;
62030;SDS011;62035;52.094;5.112;2023-06-26T10:34:18;7.50;;;1.90;;
62030;SDS011;62035;52.094;5.112;2023-06-26T10:36:55;6.25;;;2.00;;
62030;SDS011;62035;52.094;5.112;2023-06-26T10:39:27;8.00;;;2.22;;
62030;SDS011;62035;52.094;5.112;2023-06-26T10:42:07;5.95;;;1.60;;
62030;SDS011;62035;52.094;5.112;2023-06-26T10:44:40;7.80;;;1.73;;
62030;SDS011;62035;52.094;5.112;2023-06-26T10:47:09;10.82;;;2.35;;
62030;SDS011;62035;52.094;5.112;2023-06-26T10:49:38;4.03;;;1.77;;
62030;SDS011;62035;52.094;5.112;2023-06-26T10:52:16;9.35;;;1.75;;
62030;SDS011;62035;52.094;5.112;2023-06-26T10:54:44;10.73;;;1.83;;
62030;SDS011;62035;52.094;5.112;2023-06-26T10:57:12;5.45;;;1.70;;
62030;SDS011;62035;52.094;5.112;2023-06-26T11:02:47;6.15;;;1.50;;
62030;SDS011;62035;52.094;5.112;2023-06-26T11:05:23;6.53;;;1.60;;
62030;SDS011;62035;52.094;5.112;2023-06-26T11:08:04;5.15;;;1.60;;
62030;SDS011;62035;52.094;5.112;2023-06-26T11:13:18;5.57;;;1.63;;
62030;SDS011;62035;52.094;5.112;2023-06-26T11:15:47;4.25;;;1.60;;
62030;SDS011;62035;52.094;5.112;2023-06-26T11:18:17;6.50;;;1.50;;
62030;SDS011;62035;52.094;5.112;2023-06-26T11:20:45;7.30;;;1.92;;
62030;SDS011;62035;52.094;5.112;2023-06-26T11:23:14;7.40;;;1.90;;
62030;SDS011;62035;52.094;5.112;2023-06-26T11:25:50;5.57;;;1.40;;
62030;SDS011;62035;52.094;5.112;2023-06-26T11:28:18;2.95;;;1.40;;
62030;SDS011;62035;52.094;5.112;2023-06-26T11:30:48;8.63;;;1.38;;
62030;SDS011;62035;52.094;5.112;2023-06-26T11:33:16;8.75;;;1.58;;
62030;SDS011;62035;52.094;5.112;2023-06-26T11:35:43;5.50;;;1.10;;
62030;SDS011;62035;52.094;5.112;2023-06-26T11:38:11;2.15;;;1.00;;
62030;SDS011;62035;52.094;5.112;2023-06-26T11:40:40;5.18;;;1.52;;
62030;SDS011;62035;52.094;5.112;2023-06-26T11:43:09;6.07;;;1.27;;
62030;SDS011;62035;52.094;5.112;2023-06-26T11:45:37;8.60;;;1.50;;
62030;SDS011;62035;52.094;5.112;2023-06-26T11:48:05;4.68;;;1.30;;
62030;SDS011;62035;52.094;5.112;2023-06-26T11:50:36;5.18;;;1.40;;
62030;SDS011;62035;52.094;5.112;2023-06-26T11:53:04;7.97;;;1.40;;
62030;SDS011;62035;52.094;5.112;2023-06-26T11:55:41;7.70;;;1.52;;
62030;SDS011;62035;52.094;5.112;2023-06-26T11:58:09;7.35;;;1.48;;
62030;SDS011;62035;52.094;5.112;2023-06-26T12:00:40;4.07;;;1.30;;
62030;SDS011;62035;52.094;5.112;2023-06-26T12:03:09;6.43;;;1.30;;
62030;SDS011;62035;52.094;5.112;2023-06-26T12:05:37;6.65;;;1.75;;
62030;SDS011;62035;52.094;5.112;2023-06-26T12:08:05;8.07;;;1.65;;
62030;SDS011;62035;52.094;5.112;2023-06-26T12:10:34;4.18;;;1.35;;
62030;SDS011;62035;52.094;5.112;2023-06-26T12:13:03;7.10;;;1.48;;
62030;SDS011;62035;52.094;5.112;2023-06-26T12:15:31;8.50;;;1.38;;
62030;SDS011;62035;52.094;5.112;2023-06-26T12:17:59;4.15;;;1.10;;
62030;SDS011;62035;52.094;5.112;2023-06-26T12:20:27;13.05;;;1.63;;
62030;SDS011;62035;52.094;5.112;2023-06-26T12:22:58;6.93;;;1.42;;
62030;SDS011;62035;52.094;5.112;2023-06-26T12:25:25;6.85;;;2.15;;
62030;SDS011;62035;52.094;5.112;2023-06-26T12:27:53;6.88;;;2.08;;
62030;SDS011;62035;52.094;5.112;2023-06-26T12:30:22;7.63;;;1.50;;
62030;SDS011;62035;52.094;5.112;2023-06-26T12:32:50;5.35;;;1.20;;
62030;SDS011;62035;52.094;5.112;2023-06-26T12:35:18;4.55;;;1.20;;
62030;SDS011;62035;52.094;5.112;2023-06-26T12:37:46;14.63;;;2.30;;
62030;SDS011;62035;52.094;5.112;2023-06-26T12:40:16;4.38;;;1.90;;
62030;SDS011;62035;52.094;5.112;2023-06-26T12:42:47;8.10;;;1.27;;
62030;SDS011;62035;52.094;5.112;2023-06-26T12:45:15;8.48;;;1.58;;
62030;SDS011;62035;52.094;5.112;2023-06-26T12:47:44;5.18;;;1.42;;
62030;SDS011;62035;52.094;5.112;2023-06-26T12:50:12;7.35;;;1.80;;
62030;SDS011;62035;52.094;5.112;2023-06-26T12:52:40;6.47;;;1.42;;
62030;SDS011;62035;52.094;5.112;2023-06-26T12:55:08;4.13;;;1.80;;
62030;SDS011;62035;52.094;5.112;2023-06-26T12:57:36;9.20;;;1.60;;
62030;SDS011;62035;52.094;5.112;2023-06-26T13:00:04;9.95;;;1.88;;
62030;SDS011;62035;52.094;5.112;2023-06-26T13:02:36;3.70;;;1.30;;
62030;SDS011;62035;52.094;5.112;2023-06-26T13:05:05;11.75;;;1.40;;
62030;SDS011;62035;52.094;5.112;2023-06-26T13:07:33;11.65;;;1.58;;
62030;SDS011;62035;52.094;5.112;2023-06-26T13:10:00;4.18;;;1.55;;
62030;SDS011;62035;52.094;5.112;2023-06-26T13:12:28;3.08;;;1.30;;
62030;SDS011;62035;52.094;5.112;2023-06-26T13:14:56;3.97;;;1.77;;
62030;SDS011;62035;52.094;5.112;2023-06-26T13:17:24;5.28;;;1.33;;
62030;SDS011;62035;52.094;5.112;2023-06-26T13:19:51;8.02;;;1.50;;
62030;SDS011;62035;52.094;5.112;2023-06-26T13:22:20;10.32;;;1.35;;
62030;SDS011;62035;52.094;5.112;2023-06-26T13:24:48;4.93;;;1.30;;
62030;SDS011;62035;52.094;5.112;2023-06-26T13:27:16;12.40;;;1.33;;
62030;SDS011;62035;52.094;5.112;2023-06-26T13:29:44;6.50;;;1.30;;
62030;SDS011;62035;52.094;5.112;2023-06-26T13:32:12;4.53;;;1.30;;
62030;SDS011;62035;52.094;5.112;2023-06-26T13:34:39;6.13;;;1.27;;
62030;SDS011;62035;52.094;5.112;2023-06-26T13:37:07;5.85;;;1.95;;
62030;SDS011;62035;52.094;5.112;2023-06-26T13:39:37;4.63;;;1.20;;
62030;SDS011;62035;52.094;5.112;2023-06-26T13:42:04;6.35;;;1.40;;
62030;SDS011;62035;52.094;5.112;2023-06-26T13:44:33;3.17;;;1.13;;
62030;SDS011;62035;52.094;5.112;2023-06-26T13:47:00;5.93;;;1.38;;
62030;SDS011;62035;52.094;5.112;2023-06-26T13:49:28;4.18;;;1.40;;
62030;SDS011;62035;52.094;5.112;2023-06-26T13:51:56;5.00;;;1.20;;
62030;SDS011;62035;52.094;5.112;2023-06-26T13:54:24;3.50;;;1.33;;
62030;SDS011;62035;52.094;5.112;2023-06-26T13:56:52;3.70;;;1.40;;
62030;SDS011;62035;52.094;5.112;2023-06-26T13:59:23;2.92;;;1.33;;
62030;SDS011;62035;52.094;5.112;2023-06-26T14:01:51;4.93;;;1.20;;
62030;SDS011;62035;52.094;5.112;2023-06-26T14:04:19;2.20;;;1.10;;
62030;SDS011;62035;52.094;5.112;2023-06-26T14:06:47;6.15;;;1.30;;
62030;SDS011;62035;52.094;5.112;2023-06-26T14:09:14;5.65;;;1.50;;
62030;SDS011;62035;52.094;5.112;2023-06-26T14:11:43;6.70;;;1.52;;
62030;SDS011;62035;52.094;5.112;2023-06-26T14:14:12;3.45;;;1.35;;
62030;SDS011;62035;52.094;5.112;2023-06-26T14:16:39;2.92;;;1.20;;
62030;SDS011;62035;52.094;5.112;2023-06-26T14:19:07;2.70;;;1.20;;
62030;SDS011;62035;52.094;5.112;2023-06-26T14:21:41;4.90;;;1.50;;
62030;SDS011;62035;52.094;5.112;2023-06-26T14:24:09;4.65;;;1.33;;
62030;SDS011;62035;52.094;5.112;2023-06-26T14:26:37;4.20;;;1.20;;
62030;SDS011;62035;52.094;5.112;2023-06-26T14:29:05;3.55;;;1.10;;
62030;SDS011;62035;52.094;5.112;2023-06-26T14:31:34;3.53;;;1.30;;
62030;SDS011;62035;52.094;5.112;2023-06-26T14:34:02;2.30;;;1.10;;
62030;SDS011;62035;52.094;5.112;2023-06-26T14:36:29;2.53;;;1.10;;
62030;SDS011;62035;52.094;5.112;2023-06-26T14:38:58;3.47;;;1.17;;
62030;SDS011;62035;52.094;5.112;2023-06-26T14:41:25;3.13;;;1.17;;
62030;SDS011;62035;52.094;5.112;2023-06-26T14:43:53;3.22;;;1.30;;
62030;SDS011;62035;52.094;5.112;2023-06-26T14:46:21;3.63;;;1.40;;
62030;SDS011;62035;52.094;5.112;2023-06-26T14:48:50;3.80;;;1.33;;
62030;SDS011;62035;52.094;5.112;2023-06-26T14:51:18;2.65;;;1.30;;
62030;SDS011;62035;52.094;5.112;2023-06-26T14:53:45;6.93;;;1.33;;
62030;SDS011;62035;52.094;5.112;2023-06-26T14:56:13;4.45;;;1.30;;
62030;SDS011;62035;52.094;5.112;2023-06-26T14:58:41;6.32;;;2.13;;
62030;SDS011;62035;52.094;5.112;2023-06-26T15:01:08;2.85;;;1.20;;
62030;SDS011;62035;52.094;5.112;2023-06-26T15:03:36;3.22;;;1.23;;